createdAt,value
2017-10-27T00:00:46.658Z,0
2017-10-27T00:01:46.989Z,0
2017-10-27T00:02:46.647Z,0
2017-10-27T00:03:46.636Z,0
2017-10-27T00:04:46.957Z,0
2017-10-27T00:05:46.961Z,0
2017-10-27T00:06:46.620Z,0
2017-10-27T00:07:46.589Z,0
2017-10-27T00:08:46.919Z,0
2017-10-27T00:09:46.910Z,0
2017-10-27T00:10:46.918Z,0
2017-10-27T00:11:46.908Z,0
2017-10-27T00:12:46.553Z,0
2017-10-27T00:13:46.531Z,0
2017-10-27T00:14:46.860Z,0
2017-10-27T00:15:46.864Z,0
2017-10-27T00:16:46.504Z,0
2017-10-27T00:17:46.489Z,0
2017-10-27T00:18:46.481Z,0
2017-10-27T00:19:46.486Z,0
2017-10-27T00:20:46.459Z,0
2017-10-27T00:21:46.790Z,0
2017-10-27T00:22:46.441Z,0
2017-10-27T00:23:46.437Z,0
2017-10-27T00:24:46.418Z,0
2017-10-27T00:25:46.423Z,0
2017-10-27T00:26:46.401Z,0
2017-10-27T00:27:46.730Z,0
2017-10-27T00:28:46.739Z,0
2017-10-27T00:29:46.369Z,0
2017-10-27T00:30:46.704Z,0
2017-10-27T00:31:46.350Z,0
2017-10-27T00:32:46.342Z,0
2017-10-27T00:33:46.331Z,0
2017-10-27T00:34:46.324Z,0
2017-10-27T00:35:46.311Z,0
2017-10-27T00:36:46.311Z,0
2017-10-27T00:37:46.293Z,0
2017-10-27T00:38:46.632Z,0
2017-10-27T00:39:46.273Z,0
2017-10-27T00:40:46.263Z,0
2017-10-27T00:41:46.253Z,0
2017-10-27T00:42:46.243Z,0
2017-10-27T00:43:46.236Z,0
2017-10-27T00:44:46.562Z,0
2017-10-27T00:45:46.214Z,0
2017-10-27T00:46:46.210Z,0
2017-10-27T00:47:46.535Z,0
2017-10-27T00:48:46.188Z,0
2017-10-27T00:49:46.184Z,0
2017-10-27T00:50:46.505Z,0
2017-10-27T00:51:46.510Z,0
2017-10-27T00:52:46.146Z,0
2017-10-27T00:53:46.480Z,0
2017-10-27T00:54:46.469Z,0
2017-10-27T00:55:46.117Z,0
2017-10-27T00:56:46.106Z,0
2017-10-27T00:57:46.097Z,0
2017-10-27T00:58:46.430Z,0
2017-10-27T00:59:46.078Z,0
2017-10-27T01:00:46.089Z,0
2017-10-27T01:01:46.057Z,0
2017-10-27T01:02:46.390Z,0
2017-10-27T01:03:46.039Z,0
2017-10-27T01:04:46.029Z,0
2017-10-27T01:05:46.020Z,0
2017-10-27T01:06:46.351Z,0
2017-10-27T01:07:46.003Z,0
2017-10-27T01:08:45.989Z,0
2017-10-27T01:09:45.979Z,0
2017-10-27T01:10:45.971Z,0
2017-10-27T01:11:45.964Z,0
2017-10-27T01:12:45.952Z,0
2017-10-27T01:13:46.302Z,0
2017-10-27T01:14:45.933Z,0
2017-10-27T01:15:45.936Z,0
2017-10-27T01:16:46.253Z,0
2017-10-27T01:17:45.904Z,0
2017-10-27T01:18:45.895Z,0
2017-10-27T01:19:45.926Z,0
2017-10-27T01:20:46.215Z,0
2017-10-27T01:21:45.866Z,0
2017-10-27T01:22:45.857Z,0
2017-10-27T01:23:46.185Z,0
2017-10-27T01:24:46.192Z,0
2017-10-27T01:25:45.827Z,0
2017-10-27T01:26:46.159Z,0
2017-10-27T01:27:46.169Z,0
2017-10-27T01:28:46.136Z,0
2017-10-27T01:29:45.790Z,0
2017-10-27T01:30:46.137Z,0
2017-10-27T01:31:45.770Z,0
2017-10-27T01:32:45.758Z,0
2017-10-27T01:33:45.748Z,0
2017-10-27T01:34:46.081Z,0
2017-10-27T01:35:45.730Z,0
2017-10-27T01:36:45.720Z,0
2017-10-27T01:37:46.049Z,0
2017-10-27T01:38:46.054Z,0
2017-10-27T01:39:45.692Z,0
2017-10-27T01:40:46.025Z,0
2017-10-27T01:41:45.671Z,0
2017-10-27T01:42:45.661Z,0
2017-10-27T01:43:45.667Z,0
2017-10-27T01:44:45.643Z,0
2017-10-27T01:45:45.980Z,0
2017-10-27T01:46:45.981Z,0
2017-10-27T01:47:45.614Z,0
2017-10-27T01:48:45.603Z,0
2017-10-27T01:49:45.937Z,0
2017-10-27T01:50:45.586Z,0
2017-10-27T01:51:45.576Z,0
2017-10-27T01:52:45.906Z,0
2017-10-27T01:53:45.559Z,0
2017-10-27T01:54:45.556Z,0
2017-10-27T01:55:45.879Z,0
2017-10-27T01:56:45.528Z,0
2017-10-27T01:57:45.518Z,0
2017-10-27T01:58:45.850Z,0
2017-10-27T01:59:45.515Z,0
2017-10-27T02:00:45.489Z,0
2017-10-27T02:01:45.480Z,0
2017-10-27T02:02:45.479Z,0
2017-10-27T02:03:45.459Z,0
2017-10-27T02:04:45.449Z,0
2017-10-27T02:05:45.441Z,0
2017-10-27T02:06:45.774Z,0
2017-10-27T02:07:45.420Z,0
2017-10-27T02:08:45.412Z,0
2017-10-27T02:09:45.415Z,0
2017-10-27T02:10:45.390Z,0
2017-10-27T02:11:45.722Z,0
2017-10-27T02:12:45.739Z,0
2017-10-27T02:13:45.369Z,0
2017-10-27T02:14:45.351Z,0
2017-10-27T02:15:45.342Z,0
2017-10-27T02:16:45.334Z,0
2017-10-27T02:17:45.321Z,0
2017-10-27T02:18:45.312Z,0
2017-10-27T02:19:45.302Z,0
2017-10-27T02:20:45.292Z,0
2017-10-27T02:21:45.623Z,0
2017-10-27T02:22:45.289Z,0
2017-10-27T02:23:45.260Z,0
2017-10-27T02:24:45.606Z,0
2017-10-27T02:25:45.263Z,0
2017-10-27T02:26:45.233Z,0
2017-10-27T02:27:45.222Z,0
2017-10-27T02:28:45.311Z,0
2017-10-27T02:29:45.200Z,0
2017-10-27T02:30:45.189Z,0
2017-10-27T02:31:45.545Z,0
2017-10-27T02:32:45.170Z,0
2017-10-27T02:33:45.163Z,0
2017-10-27T02:34:45.491Z,0
2017-10-27T02:35:45.149Z,0
2017-10-27T02:36:45.475Z,0
2017-10-27T02:37:45.129Z,0
2017-10-27T02:38:45.109Z,0
2017-10-27T02:39:45.449Z,0
2017-10-27T02:40:45.108Z,0
2017-10-27T02:41:45.414Z,0
2017-10-27T02:42:45.071Z,0
2017-10-27T02:43:45.064Z,0
2017-10-27T02:44:45.042Z,0
2017-10-27T02:45:45.031Z,0
2017-10-27T02:46:45.034Z,0
2017-10-27T02:47:45.351Z,0
2017-10-27T02:48:45.346Z,0
2017-10-27T02:49:45.337Z,0
2017-10-27T02:50:45.317Z,0
2017-10-27T02:51:44.967Z,0
2017-10-27T02:52:44.955Z,0
2017-10-27T02:53:44.962Z,0
2017-10-27T02:54:44.933Z,0
2017-10-27T02:55:44.931Z,0
2017-10-27T02:56:44.914Z,0
2017-10-27T02:57:45.240Z,0
2017-10-27T02:58:45.232Z,0
2017-10-27T02:59:44.877Z,0
2017-10-27T03:00:44.866Z,0
2017-10-27T03:01:45.194Z,0
2017-10-27T03:02:45.186Z,0
2017-10-27T03:03:44.833Z,0
2017-10-27T03:04:44.824Z,0
2017-10-27T03:05:45.148Z,0
2017-10-27T03:06:44.798Z,0
2017-10-27T03:07:44.817Z,0
2017-10-27T03:08:45.114Z,0
2017-10-27T03:09:44.781Z,0
2017-10-27T03:10:44.753Z,0
2017-10-27T03:11:45.084Z,0
2017-10-27T03:12:45.077Z,0
2017-10-27T03:13:44.723Z,0
2017-10-27T03:14:44.709Z,0
2017-10-27T03:15:44.699Z,0
2017-10-27T03:16:45.053Z,0
2017-10-27T03:17:44.676Z,0
2017-10-27T03:18:45.004Z,0
2017-10-27T03:19:44.668Z,0
2017-10-27T03:20:44.997Z,0
2017-10-27T03:21:44.986Z,0
2017-10-27T03:22:44.618Z,0
2017-10-27T03:23:44.608Z,0
2017-10-27T03:24:44.946Z,0
2017-10-27T03:25:44.586Z,0
2017-10-27T03:26:44.575Z,0
2017-10-27T03:27:44.901Z,0
2017-10-27T03:28:44.888Z,0
2017-10-27T03:29:44.541Z,0
2017-10-27T03:30:44.531Z,0
2017-10-27T03:31:44.518Z,0
2017-10-27T03:32:44.507Z,0
2017-10-27T03:33:44.515Z,0
2017-10-27T03:34:44.484Z,0
2017-10-27T03:35:44.480Z,0
2017-10-27T03:36:44.806Z,0
2017-10-27T03:37:44.452Z,0
2017-10-27T03:38:44.439Z,0
2017-10-27T03:39:44.789Z,0
2017-10-27T03:40:44.761Z,0
2017-10-27T03:41:44.405Z,0
2017-10-27T03:42:44.394Z,0
2017-10-27T03:43:44.723Z,0
2017-10-27T03:44:44.712Z,0
2017-10-27T03:45:44.359Z,0
2017-10-27T03:46:44.705Z,0
2017-10-27T03:47:44.687Z,0
2017-10-27T03:48:44.331Z,0
2017-10-27T03:49:44.316Z,0
2017-10-27T03:50:44.650Z,0
2017-10-27T03:51:44.294Z,0
2017-10-27T03:52:44.282Z,0
2017-10-27T03:53:44.271Z,0
2017-10-27T03:54:44.261Z,0
2017-10-27T03:55:44.590Z,0
2017-10-27T03:56:44.238Z,0
2017-10-27T03:57:44.226Z,0
2017-10-27T03:58:44.557Z,0
2017-10-27T03:59:44.205Z,0
2017-10-27T04:00:44.194Z,0
2017-10-27T04:01:44.190Z,0
2017-10-27T04:02:44.172Z,0
2017-10-27T04:03:44.183Z,0
2017-10-27T04:04:44.148Z,0
2017-10-27T04:05:44.478Z,0
2017-10-27T04:06:44.127Z,0
2017-10-27T04:07:44.457Z,0
2017-10-27T04:08:44.443Z,0
2017-10-27T04:09:44.433Z,0
2017-10-27T04:10:44.099Z,0
2017-10-27T04:11:44.070Z,0
2017-10-27T04:12:44.067Z,0
2017-10-27T04:13:44.392Z,0
2017-10-27T04:14:44.036Z,0
2017-10-27T04:15:44.024Z,0
2017-10-27T04:16:44.013Z,0
2017-10-27T04:17:44.004Z,0
2017-10-27T04:18:43.993Z,0
2017-10-27T04:19:43.980Z,0
2017-10-27T04:20:44.320Z,0
2017-10-27T04:21:43.960Z,0
2017-10-27T04:22:43.949Z,0
2017-10-27T04:23:43.937Z,0
2017-10-27T04:24:43.925Z,0
2017-10-27T04:25:43.914Z,0
2017-10-27T04:26:44.266Z,0
2017-10-27T04:27:44.238Z,0
2017-10-27T04:28:43.881Z,0
2017-10-27T04:29:44.208Z,0
2017-10-27T04:30:43.859Z,0
2017-10-27T04:31:43.848Z,0
2017-10-27T04:32:44.174Z,0
2017-10-27T04:33:43.825Z,0
2017-10-27T04:34:44.015Z,0
2017-10-27T04:35:44.149Z,0
2017-10-27T04:36:43.789Z,0
2017-10-27T04:37:44.117Z,0
2017-10-27T04:38:43.768Z,0
2017-10-27T04:39:43.762Z,0
2017-10-27T04:40:43.744Z,0
2017-10-27T04:41:44.073Z,0
2017-10-27T04:42:43.722Z,0
2017-10-27T04:43:44.055Z,0
2017-10-27T04:44:44.067Z,0
2017-10-27T04:45:43.687Z,0
2017-10-27T04:46:43.677Z,0
2017-10-27T04:47:43.677Z,0
2017-10-27T04:48:43.653Z,0
2017-10-27T04:49:43.641Z,0
2017-10-27T04:50:43.632Z,0
2017-10-27T04:51:43.618Z,0
2017-10-27T04:52:43.947Z,0
2017-10-27T04:53:43.599Z,0
2017-10-27T04:54:43.921Z,0
2017-10-27T04:55:43.571Z,0
2017-10-27T04:56:43.584Z,0
2017-10-27T04:57:43.890Z,0
2017-10-27T04:58:43.538Z,0
2017-10-27T04:59:43.544Z,0
2017-10-27T05:00:43.857Z,0
2017-10-27T05:01:43.504Z,0
2017-10-27T05:02:43.492Z,0
2017-10-27T05:03:43.832Z,0
2017-10-27T05:04:43.468Z,0
2017-10-27T05:05:43.465Z,0
2017-10-27T05:06:43.785Z,0
2017-10-27T05:07:43.434Z,0
2017-10-27T05:08:43.421Z,0
2017-10-27T05:09:43.430Z,0
2017-10-27T05:10:43.746Z,0
2017-10-27T05:11:43.386Z,0
2017-10-27T05:12:43.375Z,0
2017-10-27T05:13:43.704Z,0
2017-10-27T05:14:43.362Z,0
2017-10-27T05:15:43.340Z,0
2017-10-27T05:16:43.329Z,0
2017-10-27T05:17:43.337Z,0
2017-10-27T05:18:43.305Z,0
2017-10-27T05:19:43.314Z,0
2017-10-27T05:20:43.620Z,0
2017-10-27T05:21:43.275Z,0
2017-10-27T05:22:43.597Z,0
2017-10-27T05:23:43.247Z,0
2017-10-27T05:24:43.235Z,0
2017-10-27T05:25:43.225Z,0
2017-10-27T05:26:43.566Z,0
2017-10-27T05:27:43.205Z,0
2017-10-27T05:28:43.195Z,0
2017-10-27T05:29:43.527Z,0
2017-10-27T05:30:43.509Z,0
2017-10-27T05:31:43.154Z,0
2017-10-27T05:32:43.140Z,0
2017-10-27T05:33:43.134Z,0
2017-10-27T05:34:43.122Z,0
2017-10-27T05:35:43.447Z,0
2017-10-27T05:36:43.092Z,0
2017-10-27T05:37:43.091Z,0
2017-10-27T05:38:43.071Z,0
2017-10-27T05:39:43.061Z,0
2017-10-27T05:40:43.046Z,0
2017-10-27T05:41:43.040Z,0
2017-10-27T05:42:43.022Z,0
2017-10-27T05:43:43.013Z,0
2017-10-27T05:44:43.348Z,0
2017-10-27T05:45:42.988Z,0
2017-10-27T05:46:43.000Z,0
2017-10-27T05:47:42.972Z,0
2017-10-27T05:48:42.955Z,0
2017-10-27T05:49:43.284Z,0
2017-10-27T05:50:43.274Z,0
2017-10-27T05:51:43.260Z,0
2017-10-27T05:52:42.905Z,0
2017-10-27T05:53:42.895Z,0
2017-10-27T05:54:42.888Z,0
2017-10-27T05:55:43.209Z,0
2017-10-27T05:56:42.859Z,0
2017-10-27T05:57:43.198Z,0
2017-10-27T05:58:43.186Z,0
2017-10-27T05:59:42.827Z,0
2017-10-27T06:00:42.814Z,0
2017-10-27T06:01:42.803Z,0
2017-10-27T06:02:43.132Z,0
2017-10-27T06:03:42.800Z,0
2017-10-27T06:04:42.769Z,0
2017-10-27T06:05:43.114Z,0
2017-10-27T06:06:43.082Z,0
2017-10-27T06:07:42.732Z,0
2017-10-27T06:08:42.724Z,0
2017-10-27T06:09:42.709Z,0
2017-10-27T06:10:42.698Z,0
2017-10-27T06:11:42.684Z,0
2017-10-27T06:12:42.674Z,0
2017-10-27T06:13:43.004Z,0
2017-10-27T06:14:42.668Z,0
2017-10-27T06:15:42.648Z,0
2017-10-27T06:16:42.628Z,0
2017-10-27T06:17:42.617Z,0
2017-10-27T06:18:42.607Z,0
2017-10-27T06:19:42.596Z,0
2017-10-27T06:20:42.583Z,0
2017-10-27T06:21:42.910Z,0
2017-10-27T06:22:42.559Z,0
2017-10-27T06:23:43.089Z,0
2017-10-27T06:24:42.880Z,0
2017-10-27T06:25:42.528Z,0
2017-10-27T06:26:42.531Z,0
2017-10-27T06:27:42.839Z,0
2017-10-27T06:28:42.489Z,0
2017-10-27T06:29:42.476Z,0
2017-10-27T06:30:42.465Z,0
2017-10-27T06:31:42.803Z,0
2017-10-27T06:32:42.784Z,0
2017-10-27T06:33:42.431Z,0
2017-10-27T06:34:42.619Z,0
2017-10-27T06:35:42.753Z,0
2017-10-27T06:36:42.399Z,0
2017-10-27T06:37:42.386Z,0
2017-10-27T06:38:42.717Z,0
2017-10-27T06:39:42.362Z,0
2017-10-27T06:40:42.703Z,0
2017-10-27T06:41:42.339Z,0
2017-10-27T06:42:42.328Z,0
2017-10-27T06:43:42.660Z,0
2017-10-27T06:44:42.647Z,0
2017-10-27T06:45:42.294Z,0
2017-10-27T06:46:42.623Z,0
2017-10-27T06:47:42.270Z,0
2017-10-27T06:48:42.598Z,0
2017-10-27T06:49:42.594Z,0
2017-10-27T06:50:42.575Z,0
2017-10-27T06:51:42.223Z,0
2017-10-27T06:52:42.212Z,0
2017-10-27T06:53:42.199Z,0
2017-10-27T06:54:42.531Z,0
2017-10-27T06:55:42.200Z,0
2017-10-27T06:56:42.166Z,0
2017-10-27T06:57:42.512Z,0
2017-10-27T06:58:42.148Z,0
2017-10-27T06:59:42.471Z,0
2017-10-27T07:00:42.122Z,0
2017-10-27T07:01:42.110Z,0
2017-10-27T07:02:42.437Z,0
2017-10-27T07:03:42.445Z,0
2017-10-27T07:04:42.416Z,0
2017-10-27T07:05:42.064Z,0
2017-10-27T07:06:42.436Z,0
2017-10-27T07:07:42.380Z,0
2017-10-27T07:08:42.028Z,0
2017-10-27T07:09:42.076Z,0
2017-10-27T07:10:42.015Z,0
2017-10-27T07:11:42.114Z,0
2017-10-27T07:12:41.981Z,0
2017-10-27T07:13:42.329Z,0
2017-10-27T07:14:41.958Z,0
2017-10-27T07:15:42.287Z,0
2017-10-27T07:16:41.936Z,0
2017-10-27T07:17:41.923Z,0
2017-10-27T07:18:42.257Z,0
2017-10-27T07:19:41.899Z,0
2017-10-27T07:20:41.890Z,0
2017-10-27T07:21:42.234Z,0
2017-10-27T07:22:41.865Z,0
2017-10-27T07:23:41.868Z,0
2017-10-27T07:24:41.864Z,0
2017-10-27T07:25:42.172Z,0
2017-10-27T07:26:41.819Z,0
2017-10-27T07:27:42.154Z,0
2017-10-27T07:28:42.133Z,0
2017-10-27T07:29:41.784Z,0
2017-10-27T07:30:41.774Z,0
2017-10-27T07:31:41.767Z,0
2017-10-27T07:32:41.750Z,0
2017-10-27T07:33:42.079Z,0
2017-10-27T07:34:42.069Z,0
2017-10-27T07:35:41.724Z,0
2017-10-27T07:36:41.704Z,0
2017-10-27T07:37:42.033Z,0
2017-10-27T07:38:41.680Z,0
2017-10-27T07:39:41.679Z,0
2017-10-27T07:40:41.996Z,0
2017-10-27T07:41:41.650Z,0
2017-10-27T07:42:41.730Z,0
2017-10-27T07:43:41.963Z,0
2017-10-27T07:44:41.618Z,0
2017-10-27T07:45:41.639Z,0
2017-10-27T07:46:41.676Z,0
2017-10-27T07:47:41.576Z,0
2017-10-27T07:48:41.906Z,0
2017-10-27T07:49:41.895Z,0
2017-10-27T07:50:41.542Z,0
2017-10-27T07:51:41.869Z,0
2017-10-27T07:52:41.549Z,0
2017-10-27T07:53:41.507Z,0
2017-10-27T07:54:41.848Z,0
2017-10-27T07:55:41.483Z,0
2017-10-27T07:56:41.473Z,0
2017-10-27T07:57:41.801Z,0
2017-10-27T07:58:41.450Z,0
2017-10-27T07:59:41.805Z,0
2017-10-27T08:00:41.765Z,0
2017-10-27T08:01:41.780Z,0
2017-10-27T08:02:41.401Z,0
2017-10-27T08:03:41.731Z,0
2017-10-27T08:04:41.732Z,0
2017-10-27T08:05:41.368Z,0
2017-10-27T08:06:41.355Z,0
2017-10-27T08:07:41.683Z,0
2017-10-27T08:08:41.331Z,0
2017-10-27T08:09:41.322Z,0
2017-10-27T08:10:41.312Z,0
2017-10-27T08:11:41.304Z,0
2017-10-27T08:12:41.284Z,0
2017-10-27T08:13:41.274Z,0
2017-10-27T08:14:41.601Z,0
2017-10-27T08:15:41.253Z,0
2017-10-27T08:16:41.260Z,0
2017-10-27T08:17:41.256Z,0
2017-10-27T08:18:41.557Z,0
2017-10-27T08:19:41.545Z,0
2017-10-27T08:20:41.193Z,0
2017-10-27T08:21:41.182Z,0
2017-10-27T08:22:41.520Z,0
2017-10-27T08:23:41.159Z,0
2017-10-27T08:24:41.487Z,0
2017-10-27T08:25:41.135Z,0
2017-10-27T08:26:41.464Z,0
2017-10-27T08:27:41.113Z,0
2017-10-27T08:28:41.125Z,0
2017-10-27T08:29:41.091Z,0
2017-10-27T08:30:41.440Z,0
2017-10-27T08:31:41.069Z,0
2017-10-27T08:32:41.055Z,0
2017-10-27T08:33:41.043Z,0
2017-10-27T08:34:41.032Z,0
2017-10-27T08:35:41.024Z,0
2017-10-27T08:36:41.352Z,0
2017-10-27T08:37:41.343Z,0
2017-10-27T08:38:41.325Z,0
2017-10-27T08:39:40.986Z,0
2017-10-27T08:40:40.965Z,0
2017-10-27T08:41:41.306Z,0
2017-10-27T08:42:40.941Z,0
2017-10-27T08:43:41.268Z,0
2017-10-27T08:44:40.919Z,0
2017-10-27T08:45:41.246Z,0
2017-10-27T08:46:40.896Z,0
2017-10-27T08:47:40.887Z,0
2017-10-27T08:48:41.216Z,0
2017-10-27T08:49:40.862Z,0
2017-10-27T08:50:41.203Z,0
2017-10-27T08:51:40.838Z,0
2017-10-27T08:52:40.826Z,0
2017-10-27T08:53:41.158Z,0
2017-10-27T08:54:40.803Z,0
2017-10-27T08:55:40.793Z,0
2017-10-27T08:56:40.786Z,0
2017-10-27T08:57:40.767Z,0
2017-10-27T08:58:41.100Z,0
2017-10-27T08:59:40.743Z,0
2017-10-27T09:00:40.736Z,0
2017-10-27T09:01:40.742Z,0
2017-10-27T09:02:40.721Z,0
2017-10-27T09:03:40.732Z,0
2017-10-27T09:04:40.687Z,0
2017-10-27T09:05:41.031Z,0
2017-10-27T09:06:40.679Z,0
2017-10-27T09:07:40.996Z,0
2017-10-27T09:08:40.649Z,0
2017-10-27T09:09:40.978Z,0
2017-10-27T09:10:40.621Z,0
2017-10-27T09:11:40.610Z,0
2017-10-27T09:12:40.940Z,0
2017-10-27T09:13:40.588Z,0
2017-10-27T09:14:40.574Z,0
2017-10-27T09:15:40.564Z,0
2017-10-27T09:16:40.554Z,0
2017-10-27T09:17:40.542Z,0
2017-10-27T09:18:40.530Z,0
2017-10-27T09:19:40.520Z,0
2017-10-27T09:20:40.510Z,0
2017-10-27T09:21:40.836Z,0
2017-10-27T09:22:40.825Z,0
2017-10-27T09:23:40.494Z,0
2017-10-27T09:24:40.806Z,0
2017-10-27T09:25:40.453Z,0
2017-10-27T09:26:40.441Z,0
2017-10-27T09:27:40.447Z,0
2017-10-27T09:28:40.418Z,0
2017-10-27T09:29:40.406Z,0
2017-10-27T09:30:40.403Z,0
2017-10-27T09:31:40.384Z,0
2017-10-27T09:32:40.716Z,0
2017-10-27T09:33:40.721Z,0
2017-10-27T09:34:40.689Z,0
2017-10-27T09:35:40.679Z,0
2017-10-27T09:36:40.326Z,0
2017-10-27T09:37:40.658Z,4.66
2017-10-27T09:38:40.648Z,5.8
2017-10-27T09:39:40.631Z,9.89
2017-10-27T09:40:40.280Z,11.21
2017-10-27T09:41:40.269Z,8.84
2017-10-27T09:42:40.598Z,4.94
2017-10-27T09:43:40.584Z,1.61
2017-10-27T09:44:40.233Z,0
2017-10-27T09:45:40.574Z,0
2017-10-27T09:46:40.210Z,0
2017-10-27T09:47:40.198Z,0
2017-10-27T09:48:40.209Z,0
2017-10-27T09:49:40.528Z,0
2017-10-27T09:50:40.177Z,0
2017-10-27T09:51:40.150Z,0
2017-10-27T09:52:40.139Z,0
2017-10-27T09:53:40.128Z,0
2017-10-27T09:54:40.115Z,0
2017-10-27T09:55:40.103Z,0
2017-10-27T09:56:40.092Z,0
2017-10-27T09:57:40.420Z,0
2017-10-27T09:58:40.407Z,0
2017-10-27T09:59:40.394Z,0
2017-10-27T10:00:40.385Z,0
2017-10-27T10:01:40.390Z,0
2017-10-27T10:02:40.021Z,0
2017-10-27T10:03:40.009Z,0
2017-10-27T10:04:39.997Z,0
2017-10-27T10:05:39.988Z,0
2017-10-27T10:06:39.974Z,0
2017-10-27T10:07:40.304Z,0
2017-10-27T10:08:39.950Z,0
2017-10-27T10:09:39.938Z,0
2017-10-27T10:10:40.273Z,0
2017-10-27T10:11:39.917Z,0
2017-10-27T10:12:40.246Z,0
2017-10-27T10:13:40.255Z,0
2017-10-27T10:14:39.883Z,0
2017-10-27T10:15:40.236Z,0
2017-10-27T10:16:39.871Z,0
2017-10-27T10:17:39.848Z,0
2017-10-27T10:18:39.905Z,0
2017-10-27T10:19:39.826Z,0
2017-10-27T10:20:39.815Z,0
2017-10-27T10:21:39.823Z,0
2017-10-27T10:22:39.795Z,0
2017-10-27T10:23:40.151Z,0.47
2017-10-27T10:24:39.775Z,6.66
2017-10-27T10:25:39.766Z,5.04
2017-10-27T10:26:40.093Z,9.13
2017-10-27T10:27:39.742Z,11.32
2017-10-27T10:28:39.738Z,8.56
2017-10-27T10:29:39.722Z,7.99
2017-10-27T10:30:40.051Z,9.51
2017-10-27T10:31:39.721Z,8.37
2017-10-27T10:32:39.691Z,7.23
2017-10-27T10:33:40.043Z,8.08
2017-10-27T10:34:40.010Z,6.46
2017-10-27T10:35:39.998Z,4.47
2017-10-27T10:36:39.646Z,4.85
2017-10-27T10:37:39.977Z,5.51
2017-10-27T10:38:39.627Z,6.46
2017-10-27T10:39:39.615Z,4.75
2017-10-27T10:40:39.944Z,3.8
2017-10-27T10:41:39.966Z,7.99
2017-10-27T10:42:39.590Z,8.37
2017-10-27T10:43:39.574Z,9.22
2017-10-27T10:44:39.570Z,10.17
2017-10-27T10:45:39.552Z,8.08
2017-10-27T10:46:39.883Z,6.66
2017-10-27T10:47:39.533Z,9.32
2017-10-27T10:48:39.529Z,9.42
2017-10-27T10:49:39.848Z,11.79
2017-10-27T10:50:39.499Z,13.51
2017-10-27T10:51:39.489Z,11.51
2017-10-27T10:52:39.819Z,9.51
2017-10-27T10:53:39.468Z,10.08
2017-10-27T10:54:39.799Z,10.65
2017-10-27T10:55:39.799Z,8.85
2017-10-27T10:56:39.441Z,7.99
2017-10-27T10:57:39.424Z,9.51
2017-10-27T10:58:39.415Z,11.41
2017-10-27T10:59:39.405Z,9.42
2017-10-27T11:00:39.394Z,11.89
2017-10-27T11:01:39.385Z,9.22
2017-10-27T11:02:39.373Z,10.84
2017-10-27T11:03:39.363Z,10.08
2017-10-27T11:04:39.693Z,8.27
2017-10-27T11:05:39.340Z,6.85
2017-10-27T11:06:39.677Z,5.71
2017-10-27T11:07:39.661Z,7.51
2017-10-27T11:08:39.310Z,8.56
2017-10-27T11:09:39.300Z,11.22
2017-10-27T11:10:39.630Z,13.89
2017-10-27T11:11:39.617Z,11.6
2017-10-27T11:12:39.614Z,12.93
2017-10-27T11:13:39.598Z,11.98
2017-10-27T11:14:39.256Z,16.17
2017-10-27T11:15:39.235Z,16.36
2017-10-27T11:16:39.225Z,14.65
2017-10-27T11:17:39.216Z,17.02
2017-10-27T11:18:39.234Z,13.98
2017-10-27T11:19:39.546Z,15.22
2017-10-27T11:20:39.182Z,15.79
2017-10-27T11:21:39.173Z,15.5
2017-10-27T11:22:39.171Z,14.65
2017-10-27T11:23:39.499Z,14.17
2017-10-27T11:24:39.141Z,13.6
2017-10-27T11:25:39.487Z,13.79
2017-10-27T11:26:39.466Z,12.55
2017-10-27T11:27:39.106Z,11.79
2017-10-27T11:28:39.441Z,12.65
2017-10-27T11:29:39.088Z,14.26
2017-10-27T11:30:39.102Z,15.22
2017-10-27T11:31:39.073Z,15.31
2017-10-27T11:32:39.057Z,14.26
2017-10-27T11:33:39.065Z,16.93
2017-10-27T11:34:39.376Z,21.21
2017-10-27T11:35:39.366Z,21.12
2017-10-27T11:36:39.012Z,19.21
2017-10-27T11:37:39.012Z,20.17
2017-10-27T11:38:38.993Z,23.02
2017-10-27T11:39:38.983Z,23.49
2017-10-27T11:40:39.312Z,22.45
2017-10-27T11:41:38.960Z,21.5
2017-10-27T11:42:39.301Z,20.73
2017-10-27T11:43:39.287Z,21.5
2017-10-27T11:44:39.269Z,22.54
2017-10-27T11:45:39.261Z,21.59
2017-10-27T11:46:38.907Z,19.02
2017-10-27T11:47:39.265Z,17.97
2017-10-27T11:48:38.887Z,15.12
2017-10-27T11:49:39.219Z,15.6
2017-10-27T11:50:39.205Z,16.36
2017-10-27T11:51:38.874Z,20.73
2017-10-27T11:52:39.194Z,25.4
2017-10-27T11:53:38.831Z,26.54
2017-10-27T11:54:38.824Z,27.68
2017-10-27T11:55:38.889Z,29.01
2017-10-27T11:56:38.803Z,35.38
2017-10-27T11:57:38.791Z,32.15
2017-10-27T11:58:38.779Z,35.29
2017-10-27T11:59:38.770Z,40.71
2017-10-27T12:00:38.760Z,43.66
2017-10-27T12:01:38.767Z,44.52
2017-10-27T12:02:39.079Z,47.09
2017-10-27T12:03:38.726Z,44.04
2017-10-27T12:04:39.061Z,42.04
2017-10-27T12:05:38.708Z,42.71
2017-10-27T12:06:39.045Z,44.71
2017-10-27T12:07:38.688Z,43.47
2017-10-27T12:08:39.015Z,46.42
2017-10-27T12:09:38.663Z,44.33
2017-10-27T12:10:38.994Z,43.95
2017-10-27T12:11:38.643Z,41.95
2017-10-27T12:12:38.633Z,39.09
2017-10-27T12:13:38.632Z,35.19
2017-10-27T12:14:38.948Z,30.44
2017-10-27T12:15:38.951Z,29.19
2017-10-27T12:16:38.618Z,32.04
2017-10-27T12:17:38.577Z,30.54
2017-10-27T12:18:38.587Z,27.97
2017-10-27T12:19:38.558Z,27.49
2017-10-27T12:20:38.886Z,29.01
2017-10-27T12:21:38.538Z,26.06
2017-10-27T12:22:38.527Z,25.87
2017-10-27T12:23:38.514Z,29.01
2017-10-27T12:24:38.505Z,29.2
2017-10-27T12:25:38.858Z,28.34
2017-10-27T12:26:38.828Z,28.34
2017-10-27T12:27:38.815Z,27.97
2017-10-27T12:28:38.799Z,26.82
2017-10-27T12:29:38.450Z,26.06
2017-10-27T12:30:38.455Z,25.4
2017-10-27T12:31:38.433Z,22.35
2017-10-27T12:32:38.418Z,19.78
2017-10-27T12:33:38.407Z,18.16
2017-10-27T12:34:38.749Z,16.25
2017-10-27T12:35:38.384Z,16.92
2017-10-27T12:36:38.372Z,12.64
2017-10-27T12:37:38.363Z,8.65
2017-10-27T12:38:38.360Z,10.93
2017-10-27T12:39:38.350Z,8.17
2017-10-27T12:40:38.672Z,6.18
2017-10-27T12:41:38.321Z,6.46
2017-10-27T12:42:38.307Z,6.18
2017-10-27T12:43:38.639Z,5.89
2017-10-27T12:44:38.287Z,8.46
2017-10-27T12:45:38.277Z,12.93
2017-10-27T12:46:38.265Z,10.08
2017-10-27T12:47:38.252Z,6.27
2017-10-27T12:48:38.261Z,4.85
2017-10-27T12:49:38.232Z,4.85
2017-10-27T12:50:38.228Z,4.47
2017-10-27T12:51:38.224Z,7.7
2017-10-27T12:52:38.554Z,7.22
2017-10-27T12:53:38.530Z,6.37
2017-10-27T12:54:38.517Z,7.03
2017-10-27T12:55:38.504Z,12.36
2017-10-27T12:56:38.501Z,13.69
2017-10-27T12:57:38.143Z,12.55
2017-10-27T12:58:38.130Z,15.31
2017-10-27T12:59:38.120Z,14.26
2017-10-27T13:00:38.451Z,14.83
2017-10-27T13:01:38.140Z,18.35
2017-10-27T13:02:38.431Z,18.54
2017-10-27T13:03:38.423Z,17.97
2017-10-27T13:04:38.065Z,18.73
2017-10-27T13:05:38.056Z,19.68
2017-10-27T13:06:38.066Z,18.44
2017-10-27T13:07:38.036Z,18.54
2017-10-27T13:08:38.363Z,14.83
2017-10-27T13:09:38.351Z,13.97
2017-10-27T13:10:38.001Z,12.07
2017-10-27T13:11:37.989Z,10.08
2017-10-27T13:12:38.316Z,8.75
2017-10-27T13:13:38.312Z,6.84
2017-10-27T13:14:38.311Z,4.37
2017-10-27T13:15:38.282Z,1.71
2017-10-27T13:16:37.929Z,0.57
2017-10-27T13:17:38.257Z,0
2017-10-27T13:18:37.907Z,0
2017-10-27T13:19:37.906Z,0
2017-10-27T13:20:38.224Z,0
2017-10-27T13:21:38.230Z,0
2017-10-27T13:22:38.208Z,0
2017-10-27T13:23:37.850Z,0
2017-10-27T13:24:37.838Z,0
2017-10-27T13:25:37.828Z,0
2017-10-27T13:26:38.151Z,0
2017-10-27T13:27:37.802Z,0
2017-10-27T13:28:37.815Z,0
2017-10-27T13:29:38.119Z,0
2017-10-27T13:30:38.108Z,0
2017-10-27T13:31:37.755Z,0
2017-10-27T13:32:37.746Z,0
2017-10-27T13:33:37.735Z,0
2017-10-27T13:34:37.722Z,0
2017-10-27T13:35:37.711Z,0
2017-10-27T13:36:37.696Z,0
2017-10-27T13:37:37.709Z,0
2017-10-27T13:38:38.023Z,3.04
2017-10-27T13:39:37.687Z,3.33
2017-10-27T13:40:37.653Z,3.32
2017-10-27T13:41:37.981Z,1.8
2017-10-27T13:42:37.628Z,1.8
2017-10-27T13:43:37.619Z,1.52
2017-10-27T13:44:37.616Z,1.04
2017-10-27T13:45:37.595Z,0.38
2017-10-27T13:46:37.933Z,0.09
2017-10-27T13:47:37.576Z,0.66
2017-10-27T13:48:37.578Z,1.8
2017-10-27T13:49:37.549Z,1.42
2017-10-27T13:50:37.539Z,3.04
2017-10-27T13:51:37.882Z,2.85
2017-10-27T13:52:37.854Z,0.19
2017-10-27T13:53:37.520Z,0
2017-10-27T13:54:37.489Z,0
2017-10-27T13:55:38.027Z,0
2017-10-27T13:56:37.489Z,0
2017-10-27T13:57:37.803Z,0
2017-10-27T13:58:37.793Z,0
2017-10-27T13:59:37.434Z,0.19
2017-10-27T14:00:37.421Z,0
2017-10-27T14:01:37.411Z,0
2017-10-27T14:02:37.738Z,0.38
2017-10-27T14:03:37.387Z,0
2017-10-27T14:04:37.724Z,0.57
2017-10-27T14:05:37.364Z,3.13
2017-10-27T14:06:37.692Z,3.42
2017-10-27T14:07:37.340Z,2.56
2017-10-27T14:08:37.329Z,3.8
2017-10-27T14:09:37.324Z,3.13
2017-10-27T14:10:37.646Z,1.52
2017-10-27T14:11:37.293Z,1.71
2017-10-27T14:12:37.284Z,0.09
2017-10-27T14:13:37.611Z,0
2017-10-27T14:14:37.288Z,0
2017-10-27T14:15:37.247Z,0
2017-10-27T14:16:37.594Z,1.04
2017-10-27T14:17:37.233Z,1.71
2017-10-27T14:18:37.214Z,2.85
2017-10-27T14:19:37.543Z,3.7